Time;durP1;ratioP1;P1;durP2;ratioP2;P2;SDS_P1;SDS_P2;PMS_P1;PMS_P2;Temp;Humidity;BMP_temperature;BMP_pressure;BME280_temperature;BME280_humidity;BME280_pressure;Samples;Min_cycle;Max_cycle;Signal;HPM_P1;HPM_P2
2023/03/19 00:01:27;;;;;;;8.20;4.20;;;10.70;99.90;;;;;;5053934;28;20043;-51
2023/03/19 00:03:53;;;;;;;7.77;4.00;;;10.60;99.90;;;;;;5053629;28;20090;-51
2023/03/19 00:06:19;;;;;;;6.93;3.60;;;10.60;99.90;;;;;;5053925;28;20386;-48
2023/03/19 00:08:45;;;;;;;8.57;3.40;;;10.60;99.90;;;;;;5053585;28;20070;-48
2023/03/19 00:11:12;;;;;;;9.27;3.87;;;10.60;99.90;;;;;;5053851;28;20029;-49
2023/03/19 00:13:39;;;;;;;7.23;3.63;;;10.60;99.90;;;;;;5053557;28;20032;-49
2023/03/19 00:16:06;;;;;;;9.80;3.80;;;10.60;99.90;;;;;;5053692;28;20029;-49
2023/03/19 00:18:32;;;;;;;8.80;3.37;;;10.60;99.90;;;;;;5053365;28;20104;-51
2023/03/19 00:20:58;;;;;;;9.83;3.83;;;10.70;99.90;;;;;;5053792;28;20472;-47
2023/03/19 00:23:24;;;;;;;7.93;3.90;;;10.70;99.90;;;;;;5053381;28;20060;-52
2023/03/19 00:25:49;;;;;;;9.27;4.10;;;10.70;99.90;;;;;;5053534;28;20071;-47
2023/03/19 00:28:15;;;;;;;9.53;4.07;;;10.70;99.90;;;;;;5069621;22;20094;-51
2023/03/19 00:30:43;;;;;;;8.47;3.33;;;10.70;99.90;;;;;;5055404;28;20470;-54
2023/03/19 00:33:09;;;;;;;5.83;3.63;;;10.70;99.90;;;;;;5073730;28;20031;-48
2023/03/19 00:35:35;;;;;;;10.37;4.27;;;10.80;99.90;;;;;;5073160;28;20025;-51
2023/03/19 00:38:01;;;;;;;10.10;4.07;;;10.60;99.90;;;;;;5075905;28;20397;-51
2023/03/19 00:40:29;;;;;;;9.87;5.37;;;10.60;99.90;;;;;;5075280;28;20036;-51
2023/03/19 00:42:55;;;;;;;8.90;4.47;;;10.50;99.90;;;;;;5075385;28;20036;-50
2023/03/19 00:45:20;;;;;;;9.20;4.33;;;10.50;99.90;;;;;;5075228;28;20035;-48
2023/03/19 00:47:46;;;;;;;10.33;3.93;;;10.40;99.90;;;;;;5075149;28;20028;-49
2023/03/19 00:50:12;;;;;;;11.33;4.33;;;10.40;99.90;;;;;;5075113;28;20028;-53
2023/03/19 00:52:38;;;;;;;8.53;4.13;;;10.40;99.90;;;;;;5075093;28;20447;-50
2023/03/19 00:55:04;;;;;;;8.57;3.83;;;10.40;99.90;;;;;;5074834;28;20434;-49
2023/03/19 00:57:30;;;;;;;8.23;4.03;;;10.40;99.90;;;;;;5093027;28;20051;-49
2023/03/19 00:59:56;;;;;;;7.30;3.97;;;10.30;99.90;;;;;;5074876;28;20484;-54
2023/03/19 01:02:21;;;;;;;7.47;3.87;;;10.30;99.90;;;;;;5074884;28;20131;-52
2023/03/19 01:04:48;;;;;;;7.70;4.10;;;10.20;99.90;;;;;;5092879;28;20024;-53
2023/03/19 01:07:14;;;;;;;9.23;4.73;;;10.10;99.90;;;;;;5092788;28;20032;-54
2023/03/19 01:09:40;;;;;;;11.60;4.87;;;10.10;99.90;;;;;;5092256;28;20028;-52
2023/03/19 01:12:07;;;;;;;14.97;5.07;;;10.00;99.90;;;;;;5075084;28;20024;-53
2023/03/19 01:14:33;;;;;;;10.97;5.23;;;9.90;99.90;;;;;;5092798;28;20110;-54
2023/03/19 01:16:59;;;;;;;11.43;4.77;;;9.90;99.90;;;;;;5092540;28;20450;-53
2023/03/19 01:19:26;;;;;;;12.07;4.93;;;9.90;99.90;;;;;;5074824;28;20027;-56
2023/03/19 01:21:52;;;;;;;12.53;4.97;;;9.80;99.90;;;;;;5092825;28;20103;-53
2023/03/19 01:24:20;;;;;;;10.07;4.50;;;9.90;99.90;;;;;;5074355;28;20446;-53
2023/03/19 01:26:51;;;;;;;10.77;4.50;;;9.90;99.90;;;;;;5074370;28;20453;-53
2023/03/19 01:29:29;;;;;;;11.10;4.13;;;9.80;99.90;;;;;;5074251;28;20576;-51
2023/03/19 01:31:57;;;;;;;7.50;3.73;;;9.80;99.90;;;;;;5074451;28;20515;-52
2023/03/19 01:34:33;;;;;;;8.97;4.00;;;9.90;99.90;;;;;;5074169;28;20024;-54
2023/03/19 01:37:08;;;;;;;9.87;4.20;;;9.80;99.90;;;;;;5074205;28;20063;-52
2023/03/19 01:39:34;;;;;;;10.50;4.97;;;9.80;99.90;;;;;;5074164;28;20106;-50
2023/03/19 01:42:03;;;;;;;12.03;4.57;;;9.80;99.90;;;;;;5074379;28;20060;-53
2023/03/19 01:44:37;;;;;;;16.83;5.33;;;9.80;99.90;;;;;;5074003;28;20122;-58
2023/03/19 01:47:40;;;;;;;11.17;5.00;;;9.70;99.90;;;;;;5091960;28;20053;-50
2023/03/19 01:50:27;;;;;;;9.77;4.87;;;9.70;99.90;;;;;;5092539;28;20114;-52
2023/03/19 01:53:18;;;;;;;9.27;4.67;;;9.70;99.90;;;;;;5074121;28;20081;-53
2023/03/19 01:55:49;;;;;;;13.27;5.47;;;9.60;99.90;;;;;;5073992;28;20184;-53
2023/03/19 01:58:27;;;;;;;10.80;4.77;;;9.70;99.90;;;;;;5073636;28;20039;-54
2023/03/19 02:01:06;;;;;;;9.77;4.57;;;9.60;99.90;;;;;;5073932;28;20174;-51
2023/03/19 02:03:37;;;;;;;8.23;4.50;;;9.70;99.90;;;;;;5073521;28;20535;-54
2023/03/19 02:06:23;;;;;;;9.65;4.22;;;9.70;99.90;;;;;;5091116;28;20039;-51
2023/03/19 02:08:51;;;;;;;10.33;4.60;;;9.80;99.90;;;;;;5091721;28;20548;-53
2023/03/19 02:11:17;;;;;;;8.73;4.50;;;9.80;99.90;;;;;;5092046;28;20028;-52
2023/03/19 02:13:45;;;;;;;11.67;4.77;;;9.80;99.90;;;;;;5073463;28;20040;-55
2023/03/19 02:16:10;;;;;;;7.97;4.33;;;9.90;99.90;;;;;;5091688;28;20020;-52
2023/03/19 02:18:37;;;;;;;10.70;5.20;;;9.90;99.90;;;;;;5073147;28;20036;-53
2023/03/19 02:21:24;;;;;;;11.00;4.90;;;9.90;99.90;;;;;;5072524;28;20123;-54
2023/03/19 02:24:18;;;;;;;7.50;4.23;;;9.90;99.90;;;;;;5073308;28;20059;-52
2023/03/19 02:27:00;;;;;;;11.55;4.63;;;10.00;99.90;;;;;;5073264;28;20035;-50
2023/03/19 02:29:26;;;;;;;9.53;4.20;;;10.00;99.90;;;;;;5056432;28;20032;-52
2023/03/19 02:31:55;;;;;;;7.22;3.53;;;10.00;99.90;;;;;;5073241;28;20046;-52
2023/03/19 02:34:21;;;;;;;10.73;4.17;;;10.10;99.90;;;;;;5072999;28;20481;-52
2023/03/19 02:36:53;;;;;;;9.67;4.47;;;10.10;99.90;;;;;;5072970;28;20028;-48
2023/03/19 02:39:27;;;;;;;8.10;3.97;;;10.10;99.90;;;;;;5091185;28;20028;-51
2023/03/19 02:41:54;;;;;;;10.47;4.20;;;10.10;99.90;;;;;;5073247;28;20508;-49
2023/03/19 02:44:21;;;;;;;8.83;4.33;;;10.00;99.90;;;;;;5073143;28;20389;-50
2023/03/19 02:46:49;;;;;;;10.70;4.47;;;10.00;99.90;;;;;;5072808;28;20463;-52
2023/03/19 02:49:15;;;;;;;9.87;4.70;;;10.00;99.90;;;;;;5090908;28;20150;-53
2023/03/19 02:51:40;;;;;;;11.23;4.70;;;9.90;99.90;;;;;;5091210;28;20117;-55
2023/03/19 02:54:07;;;;;;;8.90;4.00;;;9.90;99.90;;;;;;5090817;28;20065;-52
2023/03/19 02:56:33;;;;;;;10.70;4.13;;;9.90;99.90;;;;;;5090863;28;20105;-53
2023/03/19 02:58:58;;;;;;;9.90;4.43;;;9.90;99.90;;;;;;5090855;28;20119;-52
2023/03/19 03:01:24;;;;;;;8.87;4.20;;;9.90;99.90;;;;;;5072915;28;20126;-55
2023/03/19 03:03:50;;;;;;;12.60;4.00;;;10.00;99.90;;;;;;5072719;28;20366;-54
2023/03/19 03:06:16;;;;;;;8.07;4.07;;;10.00;99.90;;;;;;5056010;28;20112;-54
2023/03/19 03:08:43;;;;;;;8.63;3.90;;;9.90;99.90;;;;;;5090518;28;20032;-53
2023/03/19 03:11:08;;;;;;;10.63;4.43;;;10.00;99.90;;;;;;5090823;28;20054;-54
2023/03/19 03:13:35;;;;;;;10.03;4.30;;;10.00;99.90;;;;;;5090600;28;20024;-50
2023/03/19 03:16:01;;;;;;;8.30;4.20;;;10.00;99.90;;;;;;5090825;28;20511;-52
2023/03/19 03:18:27;;;;;;;8.17;3.87;;;10.00;99.90;;;;;;5090740;28;20467;-55
2023/03/19 03:20:53;;;;;;;9.27;3.93;;;10.00;99.90;;;;;;5072449;28;20070;-54
2023/03/19 03:23:20;;;;;;;9.63;4.20;;;10.00;99.90;;;;;;5072189;28;20043;-53
2023/03/19 03:25:51;;;;;;;5.60;3.73;;;10.00;99.90;;;;;;5090807;28;20481;-51
2023/03/19 03:28:17;;;;;;;5.83;3.70;;;10.00;99.90;;;;;;5090126;28;20031;-54
2023/03/19 03:30:44;;;;;;;9.00;4.00;;;10.00;99.90;;;;;;5072466;28;20306;-53
2023/03/19 03:33:10;;;;;;;8.70;3.90;;;10.00;99.90;;;;;;5078047;28;20059;-54
2023/03/19 03:35:35;;;;;;;10.37;3.40;;;10.00;99.90;;;;;;5097089;28;20070;-54
2023/03/19 03:38:03;;;;;;;9.33;4.17;;;10.00;99.90;;;;;;5096966;28;20036;-53
2023/03/19 03:40:29;;;;;;;14.37;3.73;;;10.10;99.90;;;;;;5078999;28;20031;-53
2023/03/19 03:42:55;;;;;;;9.50;3.73;;;10.10;99.90;;;;;;5079108;28;20458;-53
2023/03/19 03:45:21;;;;;;;7.03;3.80;;;10.10;99.90;;;;;;5078876;28;20496;-53
2023/03/19 03:47:49;;;;;;;8.20;3.53;;;10.00;99.90;;;;;;5078619;28;20027;-52
2023/03/19 03:50:15;;;;;;;9.13;3.80;;;10.00;99.90;;;;;;5097161;28;20019;-53
2023/03/19 03:52:41;;;;;;;7.53;3.80;;;10.00;99.90;;;;;;5078955;28;20024;-54
2023/03/19 03:55:08;;;;;;;8.77;3.60;;;10.00;99.90;;;;;;5097079;28;20024;-55
2023/03/19 03:57:34;;;;;;;6.50;3.67;;;10.00;99.90;;;;;;5096983;28;20150;-56
2023/03/19 03:59:59;;;;;;;9.43;4.10;;;10.00;99.90;;;;;;5062083;28;20115;-54
2023/03/19 04:02:26;;;;;;;7.63;3.70;;;10.00;99.90;;;;;;5078803;28;20028;-54
2023/03/19 04:04:53;;;;;;;8.07;3.80;;;10.00;99.90;;;;;;5079004;28;20227;-54
2023/03/19 04:07:19;;;;;;;9.03;3.97;;;10.00;99.90;;;;;;5096781;28;20059;-54
2023/03/19 04:09:50;;;;;;;9.97;3.63;;;10.00;99.90;;;;;;5078757;28;20020;-54
2023/03/19 04:12:16;;;;;;;7.07;3.80;;;10.00;99.90;;;;;;5078784;28;20472;-54
2023/03/19 04:14:42;;;;;;;6.47;3.57;;;10.10;99.90;;;;;;5078560;28;20021;-53
2023/03/19 04:17:08;;;;;;;9.57;3.57;;;10.20;99.90;;;;;;5078403;28;20119;-54
2023/03/19 04:19:34;;;;;;;7.90;3.80;;;10.20;99.90;;;;;;5078524;28;20118;-54
2023/03/19 04:22:02;;;;;;;11.83;3.87;;;10.20;99.90;;;;;;5078842;28;20496;-54
2023/03/19 04:24:29;;;;;;;10.52;3.85;;;10.20;99.90;;;;;;5078501;28;20024;-53
2023/03/19 04:26:56;;;;;;;8.03;3.43;;;10.20;99.90;;;;;;5078414;28;20035;-53
2023/03/19 04:29:22;;;;;;;8.00;3.17;;;10.20;99.90;;;;;;5078417;28;20434;-53
2023/03/19 04:31:49;;;;;;;7.13;3.30;;;10.30;99.90;;;;;;5078561;28;20277;-53
2023/03/19 04:34:16;;;;;;;7.70;3.50;;;10.30;99.90;;;;;;5078433;28;20444;-50
2023/03/19 04:36:42;;;;;;;7.73;3.33;;;10.30;99.90;;;;;;5096765;28;20107;-51
2023/03/19 04:39:08;;;;;;;8.07;3.40;;;10.30;99.90;;;;;;5078354;28;20032;-52
2023/03/19 04:41:35;;;;;;;9.90;3.40;;;10.30;99.90;;;;;;5078545;28;20446;-49
2023/03/19 04:44:21;;;;;;;9.83;3.63;;;10.40;99.90;;;;;;5092298;28;20054;-54
2023/03/19 04:46:47;;;;;;;8.20;3.87;;;10.40;99.90;;;;;;5075010;28;20028;-52
2023/03/19 04:49:15;;;;;;;9.23;3.70;;;10.50;99.90;;;;;;5075153;28;20674;-53
2023/03/19 04:51:41;;;;;;;10.30;3.70;;;10.50;99.90;;;;;;5075214;28;20085;-53
2023/03/19 04:54:07;;;;;;;7.33;3.43;;;10.50;99.90;;;;;;5075006;28;20032;-52
2023/03/19 04:56:33;;;;;;;11.03;3.97;;;10.40;99.90;;;;;;5093085;28;20043;-54
2023/03/19 04:58:59;;;;;;;7.03;3.30;;;10.50;99.90;;;;;;5074751;28;20028;-53
2023/03/19 05:01:25;;;;;;;8.57;3.23;;;10.50;99.90;;;;;;5058447;28;20031;-54
2023/03/19 05:04:06;;;;;;;7.60;3.27;;;10.50;99.90;;;;;;5074846;28;20032;-54
2023/03/19 05:06:35;;;;;;;7.67;3.87;;;10.50;99.90;;;;;;5074795;28;20024;-53
2023/03/19 05:09:01;;;;;;;8.83;3.47;;;10.60;99.90;;;;;;5074819;28;20097;-52
2023/03/19 05:11:27;;;;;;;7.23;3.70;;;10.60;99.90;;;;;;5074847;28;20032;-53
2023/03/19 05:14:05;;;;;;;6.50;3.20;;;10.60;99.90;;;;;;5074585;28;20024;-53
2023/03/19 05:16:42;;;;;;;6.83;2.90;;;10.70;99.90;;;;;;5074680;28;20287;-51
2023/03/19 05:19:08;;;;;;;7.23;3.30;;;10.80;99.90;;;;;;5074503;28;20400;-53
2023/03/19 05:21:34;;;;;;;7.27;3.10;;;10.70;99.90;;;;;;5074736;28;20116;-52
2023/03/19 05:24:00;;;;;;;5.07;3.10;;;10.70;99.90;;;;;;5074486;28;20024;-52
2023/03/19 05:26:28;;;;;;;7.80;3.03;;;10.70;99.90;;;;;;5074343;28;20401;-53
2023/03/19 05:29:20;;;;;;;6.90;3.03;;;10.70;99.90;;;;;;5074182;28;20374;-52
2023/03/19 05:32:02;;;;;;;7.33;2.80;;;10.60;99.90;;;;;;5074625;28;20373;-52
2023/03/19 05:34:29;;;;;;;6.33;3.30;;;10.60;99.90;;;;;;5074148;28;20388;-52
2023/03/19 05:36:55;;;;;;;6.97;3.33;;;10.70;99.90;;;;;;5074225;28;20024;-52
2023/03/19 05:39:22;;;;;;;6.80;3.03;;;10.80;99.90;;;;;;5074277;28;20028;-54
2023/03/19 05:41:49;;;;;;;6.27;2.63;;;10.80;99.90;;;;;;5074449;28;20054;-52
2023/03/19 05:44:20;;;;;;;5.27;2.70;;;10.80;99.90;;;;;;5074053;28;20028;-53
2023/03/19 05:47:03;;;;;;;7.73;2.80;;;10.90;99.90;;;;;;5074126;28;20039;-54
2023/03/19 05:49:32;;;;;;;;;;;10.90;99.90;;;;;;5074545;28;20035;-54
2023/03/19 05:51:58;;;;;;;6.60;3.10;;;10.90;99.90;;;;;;5074202;28;19908;-54
2023/03/19 05:54:24;;;;;;;6.33;3.33;;;10.90;99.90;;;;;;5073768;28;20024;-54
2023/03/19 05:57:20;;;;;;;5.63;3.30;;;10.80;99.90;;;;;;5059632;28;20028;-55
2023/03/19 05:59:49;;;;;;;7.57;3.47;;;10.60;99.90;;;;;;5074070;28;20035;-52
2023/03/19 06:02:28;;;;;;;5.82;3.20;;;10.60;99.90;;;;;;5092234;28;20039;-51
2023/03/19 06:05:10;;;;;;;7.90;3.67;;;10.60;99.90;;;;;;5073809;28;20444;-53
2023/03/19 06:07:37;;;;;;;8.13;3.40;;;10.50;99.90;;;;;;5073396;28;20512;-54
2023/03/19 06:10:07;;;;;;;;;;;10.40;99.90;;;;;;5074255;28;20028;-54
2023/03/19 06:12:32;;;;;;;7.17;3.47;;;10.40;99.90;;;;;;5073719;28;19911;-53
2023/03/19 06:15:26;;;;;;;6.90;3.40;;;10.30;99.90;;;;;;5073494;28;20036;-54
2023/03/19 06:18:11;;;;;;;8.60;4.00;;;10.30;99.90;;;;;;5073237;28;20035;-51
2023/03/19 06:20:37;;;;;;;8.20;3.50;;;10.30;99.90;;;;;;5091729;28;20388;-52
2023/03/19 06:23:02;;;;;;;6.50;3.70;;;10.30;99.90;;;;;;5073760;28;20035;-50
2023/03/19 06:25:28;;;;;;;7.43;3.90;;;10.30;99.90;;;;;;5073437;28;20028;-51
2023/03/19 06:27:54;;;;;;;7.70;4.20;;;10.20;99.90;;;;;;5091147;28;20031;-49
2023/03/19 06:30:37;;;;;;;6.23;3.53;;;10.30;99.90;;;;;;5067146;22;20041;-53
2023/03/19 06:33:09;;;;;;;9.80;4.63;;;10.30;99.90;;;;;;5053299;28;20028;-54
2023/03/19 06:35:35;;;;;;;9.83;4.03;;;10.30;99.90;;;;;;5053046;28;20025;-53
2023/03/19 06:38:01;;;;;;;8.97;3.93;;;10.30;99.90;;;;;;5053071;28;20052;-53
2023/03/19 06:40:27;;;;;;;8.03;4.30;;;10.30;99.90;;;;;;5090786;28;20070;-53
2023/03/19 06:42:53;;;;;;;9.67;4.57;;;10.30;99.90;;;;;;5091274;28;20118;-55
2023/03/19 06:45:19;;;;;;;8.33;4.53;;;10.30;99.90;;;;;;5072899;28;20460;-55
2023/03/19 06:47:46;;;;;;;10.10;4.20;;;10.30;99.90;;;;;;5091282;28;20063;-53
2023/03/19 06:50:13;;;;;;;9.80;4.70;;;10.30;99.90;;;;;;5091091;28;20085;-53
2023/03/19 06:52:40;;;;;;;8.47;4.27;;;10.40;99.90;;;;;;5091350;28;20035;-55
2023/03/19 06:55:07;;;;;;;8.47;4.13;;;10.40;99.90;;;;;;5091122;28;20123;-53
2023/03/19 06:57:33;;;;;;;8.40;4.50;;;10.40;99.90;;;;;;5091014;28;20043;-52
2023/03/19 06:59:59;;;;;;;7.93;4.20;;;10.50;99.90;;;;;;5091005;28;20036;-54
2023/03/19 07:02:25;;;;;;;9.07;4.30;;;10.40;99.90;;;;;;5091272;28;20077;-55
2023/03/19 07:04:51;;;;;;;8.97;4.47;;;10.40;99.90;;;;;;5091013;28;20032;-56
2023/03/19 07:07:17;;;;;;;6.43;4.10;;;10.40;99.90;;;;;;5090419;28;20035;-55
2023/03/19 07:09:43;;;;;;;8.70;4.87;;;10.50;99.90;;;;;;5090824;28;20449;-55
2023/03/19 07:12:09;;;;;;;6.57;4.20;;;10.40;99.90;;;;;;5091049;28;20103;-53
2023/03/19 07:14:35;;;;;;;9.00;4.60;;;10.50;99.90;;;;;;5090864;28;20158;-53
2023/03/19 07:17:00;;;;;;;5.80;3.90;;;10.60;99.90;;;;;;5091002;28;20110;-53
2023/03/19 07:19:26;;;;;;;7.00;4.10;;;10.60;99.90;;;;;;5090962;28;20032;-57
2023/03/19 07:21:52;;;;;;;6.90;3.90;;;10.60;99.90;;;;;;5091169;28;20039;-56
2023/03/19 07:24:17;;;;;;;6.13;3.70;;;10.70;99.90;;;;;;5090894;28;20028;-56
2023/03/19 07:26:43;;;;;;;10.00;5.10;;;10.70;99.90;;;;;;5090808;28;20032;-54
2023/03/19 07:29:10;;;;;;;8.47;5.57;;;10.80;99.90;;;;;;5090560;28;20119;-57
2023/03/19 07:31:35;;;;;;;9.27;5.77;;;10.90;99.90;;;;;;5090961;28;20043;-54
2023/03/19 07:34:01;;;;;;;11.77;4.10;;;10.90;99.90;;;;;;5090776;28;20028;-56
2023/03/19 07:36:27;;;;;;;6.50;4.03;;;10.90;99.90;;;;;;5090816;28;20030;-56
2023/03/19 07:38:53;;;;;;;5.80;4.10;;;10.90;99.90;;;;;;5091204;28;20477;-56
2023/03/19 07:41:18;;;;;;;7.03;4.30;;;10.90;99.90;;;;;;5090708;28;20028;-54
2023/03/19 07:43:44;;;;;;;6.63;4.30;;;10.90;99.90;;;;;;5090438;28;20113;-54
2023/03/19 07:46:10;;;;;;;6.10;3.83;;;11.00;99.90;;;;;;5090666;28;20028;-54
2023/03/19 07:48:36;;;;;;;7.67;4.50;;;11.00;99.90;;;;;;5090259;28;20031;-55
2023/03/19 07:51:02;;;;;;;7.73;4.27;;;11.10;99.90;;;;;;5090611;28;20499;-56
2023/03/19 07:53:28;;;;;;;6.70;4.17;;;11.10;99.90;;;;;;5090307;28;20706;-54
2023/03/19 07:55:53;;;;;;;7.83;4.23;;;11.20;99.90;;;;;;5090483;28;20079;-51
2023/03/19 07:58:19;;;;;;;6.60;4.00;;;11.20;99.90;;;;;;5090044;28;20028;-55
2023/03/19 08:00:45;;;;;;;8.10;4.57;;;11.20;99.90;;;;;;5090522;28;20032;-55
2023/03/19 08:03:11;;;;;;;9.23;4.20;;;11.20;99.90;;;;;;5090407;28;20086;-54
2023/03/19 08:05:37;;;;;;;9.50;4.50;;;11.30;99.90;;;;;;5090144;28;20035;-53
2023/03/19 08:08:03;;;;;;;7.27;4.53;;;11.20;99.90;;;;;;5089978;28;20039;-54
2023/03/19 08:10:28;;;;;;;7.90;4.40;;;11.30;99.90;;;;;;5090725;28;20028;-55
2023/03/19 08:12:54;;;;;;;8.40;4.00;;;11.30;99.90;;;;;;5090306;28;20744;-54
2023/03/19 08:15:20;;;;;;;5.67;4.27;;;11.40;99.90;;;;;;5090328;28;20056;-53
2023/03/19 08:17:46;;;;;;;7.53;4.60;;;11.50;99.90;;;;;;5090246;28;20107;-54
2023/03/19 08:20:17;;;;;;;7.93;4.53;;;11.50;99.90;;;;;;5093029;28;20388;-55
2023/03/19 08:22:43;;;;;;;6.43;3.90;;;11.50;99.90;;;;;;5094007;28;20455;-55
2023/03/19 08:25:09;;;;;;;7.70;4.40;;;11.60;99.90;;;;;;5093826;28;20047;-50
2023/03/19 08:27:35;;;;;;;5.60;3.80;;;11.60;99.90;;;;;;5094066;28;20032;-54
2023/03/19 08:30:06;;;;;;;6.33;4.10;;;11.60;99.90;;;;;;5093656;28;20067;-52
2023/03/19 08:32:32;;;;;;;7.40;4.17;;;11.60;99.90;;;;;;5093764;28;20481;-55
2023/03/19 08:34:57;;;;;;;7.80;4.17;;;11.60;99.90;;;;;;5093642;28;20024;-55
2023/03/19 08:37:23;;;;;;;8.77;4.47;;;11.80;99.90;;;;;;5093457;28;20027;-54
2023/03/19 08:39:51;;;;;;;8.23;4.07;;;11.90;99.90;;;;;;5093396;28;20551;-54
2023/03/19 08:42:20;;;;;;;6.40;3.57;;;12.10;99.90;;;;;;5093578;28;20499;-56
2023/03/19 08:44:46;;;;;;;8.55;4.18;;;12.30;99.90;;;;;;5093357;28;20040;-54
2023/03/19 08:47:12;;;;;;;6.18;4.00;;;12.40;99.90;;;;;;5093393;28;20568;-54
2023/03/19 08:49:37;;;;;;;6.82;4.13;;;12.50;99.90;;;;;;5093253;28;20361;-53
2023/03/19 08:52:04;;;;;;;6.90;3.53;;;12.70;99.90;;;;;;5093885;28;20028;-56
2023/03/19 08:54:31;;;;;;;6.40;3.42;;;12.80;99.90;;;;;;5093041;28;20085;-55
2023/03/19 08:56:59;;;;;;;7.53;3.75;;;13.00;99.90;;;;;;5093144;28;20476;-53
2023/03/19 08:59:25;;;;;;;6.13;4.07;;;13.10;99.90;;;;;;5093107;28;20036;-55
2023/03/19 09:01:51;;;;;;;6.15;4.15;;;13.30;99.90;;;;;;5093263;28;20032;-55
2023/03/19 09:04:18;;;;;;;5.78;3.58;;;13.30;99.90;;;;;;5092992;28;20024;-55
2023/03/19 09:06:44;;;;;;;5.45;3.65;;;13.40;99.90;;;;;;5093007;28;20032;-55
2023/03/19 09:09:10;;;;;;;5.47;3.53;;;13.40;99.90;;;;;;5092674;28;20550;-54
2023/03/19 09:11:36;;;;;;;5.55;3.28;;;13.50;99.90;;;;;;5093036;28;20143;-53
2023/03/19 09:14:01;;;;;;;4.97;3.75;;;13.60;99.90;;;;;;5092984;28;20028;-52
2023/03/19 09:16:27;;;;;;;4.82;3.40;;;13.70;99.90;;;;;;5092720;28;20032;-54
2023/03/19 09:18:53;;;;;;;4.50;3.38;;;13.80;99.90;;;;;;5092688;28;20028;-53
2023/03/19 09:21:19;;;;;;;4.70;3.50;;;13.80;99.90;;;;;;5092739;28;20039;-53
2023/03/19 09:23:44;;;;;;;6.10;3.80;;;13.90;99.90;;;;;;5092442;28;20057;-53
2023/03/19 09:26:10;;;;;;;4.47;3.33;;;13.90;99.90;;;;;;5092905;28;20028;-56
2023/03/19 09:28:36;;;;;;;5.53;3.80;;;13.90;99.90;;;;;;5092319;28;20077;-52
2023/03/19 09:31:05;;;;;;;5.80;3.70;;;13.70;99.90;;;;;;5092263;28;20020;-52
2023/03/19 09:33:32;;;;;;;7.45;4.25;;;13.70;99.90;;;;;;5092496;28;20032;-55
2023/03/19 09:35:58;;;;;;;5.93;4.07;;;13.60;99.90;;;;;;5092478;28;20035;-52
2023/03/19 09:38:23;;;;;;;5.65;4.00;;;13.70;99.90;;;;;;5073995;28;20403;-54
2023/03/19 09:41:19;;;;;;;7.05;3.78;;;14.00;99.90;;;;;;5092461;28;20036;-54
2023/03/19 09:44:10;;;;;;;5.88;3.85;;;14.00;99.90;;;;;;5092224;28;20032;-51
2023/03/19 09:47:13;;;;;;;5.72;3.88;;;14.20;99.90;;;;;;5092069;28;20101;-49
2023/03/19 09:49:43;;;;;;;6.10;3.70;;;14.20;99.90;;;;;;5092128;28;20114;-53
2023/03/19 09:52:48;;;;;;;6.72;4.60;;;14.00;99.90;;;;;;5092222;28;20107;-52
2023/03/19 09:55:23;;;;;;;5.93;4.30;;;14.00;99.90;;;;;;5092024;28;20024;-54
2023/03/19 09:57:52;;;;;;;11.35;7.90;;;13.90;99.90;;;;;;5092047;28;20532;-56
2023/03/19 10:00:21;;;;;;;6.57;5.05;;;13.80;99.90;;;;;;5092105;28;20024;-56
2023/03/19 10:02:50;;;;;;;;;;;13.70;99.90;;;;;;5092613;28;20432;-56
2023/03/19 10:05:31;;;;;;;5.47;3.63;;;13.60;99.90;;;;;;5091706;28;20464;-55
2023/03/19 10:08:08;;;;;;;6.05;3.88;;;13.50;99.90;;;;;;5091663;28;20032;-54
2023/03/19 10:10:57;;;;;;;5.88;3.50;;;13.60;99.90;;;;;;5091959;28;20032;-57
2023/03/19 10:13:29;;;;;;;5.45;3.53;;;13.50;99.90;;;;;;5091648;28;20028;-53
2023/03/19 10:15:57;;;;;;;6.03;3.85;;;13.40;99.90;;;;;;5091823;28;20030;-55
2023/03/19 10:18:35;;;;;;;5.55;3.45;;;13.40;99.90;;;;;;5091701;28;20028;-53
2023/03/19 10:21:13;;;;;;;5.15;3.47;;;13.50;99.90;;;;;;5091638;28;20492;-54
2023/03/19 10:23:47;;;;;;;7.05;4.35;;;13.50;99.90;;;;;;5091322;28;20085;-56
2023/03/19 10:26:18;;;;;;;5.47;3.75;;;13.50;99.90;;;;;;5092029;28;20081;-55
2023/03/19 10:28:55;;;;;;;6.78;3.58;;;13.50;99.90;;;;;;5091291;28;20457;-52
2023/03/19 10:31:27;;;;;;;5.68;3.85;;;13.30;99.90;;;;;;5091619;28;20043;-53
2023/03/19 10:34:11;;;;;;;6.43;3.83;;;13.20;99.90;;;;;;5091344;28;20385;-55
2023/03/19 10:36:37;;;;;;;6.00;4.22;;;13.00;99.90;;;;;;5091170;28;20020;-54
2023/03/19 10:39:06;;;;;;;10.02;5.20;;;12.90;99.90;;;;;;5091505;28;20225;-56
2023/03/19 10:41:50;;;;;;;7.70;5.60;;;12.70;99.90;;;;;;5090914;28;20036;-49
2023/03/19 10:44:24;;;;;;;8.27;5.90;;;12.50;99.90;;;;;;5091598;28;20108;-49
2023/03/19 10:46:50;;;;;;;10.55;6.15;;;12.40;99.90;;;;;;5091315;28;20085;-50
2023/03/19 10:49:16;;;;;;;10.57;7.10;;;12.30;99.90;;;;;;5091329;28;20039;-50
2023/03/19 10:51:45;;;;;;;9.95;6.43;;;12.20;99.90;;;;;;5073575;28;20059;-49
2023/03/19 10:54:39;;;;;;;8.65;6.30;;;12.20;99.90;;;;;;5091350;28;20454;-49
2023/03/19 10:57:04;;;;;;;11.73;7.50;;;12.20;99.90;;;;;;5088431;28;20093;-50
2023/03/19 10:59:35;;;;;;;10.05;7.05;;;12.10;99.90;;;;;;5090717;28;20032;-55
2023/03/19 11:02:14;;;;;;;9.02;6.63;;;12.10;99.90;;;;;;5091041;28;20062;-55
2023/03/19 11:04:40;;;;;;;8.98;6.32;;;12.10;99.90;;;;;;5090817;28;20055;-56
2023/03/19 11:07:11;;;;;;;11.50;6.13;;;12.00;99.90;;;;;;5090817;28;20443;-53
2023/03/19 11:09:44;;;;;;;10.97;6.93;;;12.00;99.90;;;;;;5090701;28;20032;-54
2023/03/19 11:12:20;;;;;;;9.13;6.38;;;11.90;99.90;;;;;;5090759;28;20035;-56
2023/03/19 11:14:51;;;;;;;8.15;5.80;;;12.00;99.90;;;;;;5090687;28;20559;-55
2023/03/19 11:17:36;;;;;;;9.13;5.90;;;12.10;99.90;;;;;;5090593;28;20111;-54
2023/03/19 11:20:20;;;;;;;9.30;6.05;;;12.30;99.90;;;;;;5090557;28;20055;-54
2023/03/19 11:22:47;;;;;;;14.43;6.03;;;12.40;99.90;;;;;;5090688;28;20043;-53
2023/03/19 11:25:22;;;;;;;13.13;6.40;;;12.50;99.90;;;;;;5090524;28;20051;-53
2023/03/19 11:28:05;;;;;;;12.20;6.32;;;12.70;99.90;;;;;;5090433;28;20164;-54
2023/03/19 11:30:42;;;;;;;9.88;5.45;;;12.80;99.90;;;;;;5090393;28;20085;-54
2023/03/19 11:33:22;;;;;;;12.57;6.35;;;12.90;99.90;;;;;;5090556;28;20029;-55
2023/03/19 11:35:57;;;;;;;14.15;6.55;;;12.90;99.90;;;;;;5072340;28;20032;-54
2023/03/19 11:38:42;;;;;;;13.88;7.25;;;12.90;99.90;;;;;;5090297;28;20031;-54
2023/03/19 11:41:46;;;;;;;11.82;6.55;;;12.80;99.90;;;;;;5090461;28;20113;-53
2023/03/19 11:44:33;;;;;;;14.32;6.55;;;12.70;99.90;;;;;;5090280;28;20028;-55
2023/03/19 11:46:59;;;;;;;10.50;6.28;;;12.90;99.90;;;;;;5090429;28;20024;-51
2023/03/19 11:49:31;;;;;;;10.48;6.90;;;13.20;99.90;;;;;;5090091;28;20456;-53
2023/03/19 11:52:07;;;;;;;11.70;6.53;;;13.30;99.90;;;;;;5090589;28;20028;-52
2023/03/19 11:54:44;;;;;;;13.73;8.45;;;13.30;99.90;;;;;;5093962;28;20119;-52
2023/03/19 11:57:27;;;;;;;13.55;8.52;;;13.40;99.90;;;;;;5094353;28;20032;-52
2023/03/19 12:00:07;;;;;;;13.82;8.20;;;13.40;99.90;;;;;;5094283;28;20123;-54
2023/03/19 12:02:57;;;;;;;15.85;9.02;;;13.40;99.90;;;;;;5094596;28;20565;-53
2023/03/19 12:05:47;;;;;;;10.70;7.47;;;13.50;99.90;;;;;;5094054;28;20039;-52
2023/03/19 12:08:12;;;;;;;10.93;7.07;;;13.60;99.90;;;;;;5094369;28;20032;-54
2023/03/19 12:11:00;;;;;;;11.07;7.90;;;13.60;99.90;;;;;;5094350;28;20443;-53
2023/03/19 12:13:35;;;;;;;11.38;7.80;;;13.80;99.90;;;;;;5093957;28;20334;-54
2023/03/19 12:16:04;;;;;;;10.02;6.75;;;13.70;99.90;;;;;;5094180;28;20102;-54
2023/03/19 12:18:44;;;;;;;13.05;7.88;;;13.80;99.90;;;;;;5093773;28;20388;-53
2023/03/19 12:21:22;;;;;;;11.18;7.60;;;13.90;99.90;;;;;;5094018;28;20028;-53
2023/03/19 12:24:10;;;;;;;11.13;6.75;;;14.10;99.90;;;;;;5093798;28;20036;-54
2023/03/19 12:26:51;;;;;;;9.02;6.35;;;14.50;99.90;;;;;;5093761;28;20157;-52
2023/03/19 12:29:22;;;;;;;11.43;5.68;;;14.90;99.90;;;;;;5097591;22;20048;-50
2023/03/19 12:32:39;;;;;;;6.60;4.93;;;15.20;99.90;;;;;;5053803;28;20160;-49
2023/03/19 12:35:15;;;;;;;7.70;5.22;;;15.60;99.90;;;;;;4971993;28;20030;-51
2023/03/19 12:37:51;;;;;;;6.55;4.93;;;16.00;99.90;;;;;;5050661;28;20045;-51
2023/03/19 12:40:26;;;;;;;13.10;8.32;;;16.00;99.90;;;;;;5068417;28;20028;-53
2023/03/19 12:42:56;;;;;;;6.53;4.10;;;16.00;99.90;;;;;;5073916;28;20032;-52
2023/03/19 12:45:45;;;;;;;7.25;4.05;;;16.10;99.90;;;;;;5073204;28;20028;-53
2023/03/19 12:48:17;;;;;;;7.15;3.83;;;16.40;99.90;;;;;;5073050;28;20037;-50
2023/03/19 12:50:50;;;;;;;4.78;3.22;;;16.50;99.90;;;;;;5073280;28;20036;-51
2023/03/19 12:53:27;;;;;;;5.45;2.92;;;16.50;99.90;;;;;;5073564;28;20070;-50
2023/03/19 12:55:59;;;;;;;4.47;2.70;;;16.30;99.90;;;;;;5073236;28;20025;-51
2023/03/19 12:58:33;;;;;;;5.10;2.70;;;16.00;99.90;;;;;;5073197;28;20028;-53
2023/03/19 13:01:07;;;;;;;6.00;3.30;;;16.00;99.90;;;;;;5073182;28;20484;-52
2023/03/19 13:03:39;;;;;;;6.20;2.85;;;15.90;99.90;;;;;;5072875;28;20033;-52